createdAt,value
2022-12-12T00:00:58.569Z,22.47
2022-12-12T00:03:31.187Z,9.07
2022-12-12T00:06:03.325Z,5.57
2022-12-12T00:08:31.686Z,23.40
2022-12-12T00:11:00.314Z,25.40
2022-12-12T00:13:28.670Z,25.37
2022-12-12T00:15:57.166Z,22.20
2022-12-12T00:18:25.568Z,24.40
2022-12-12T00:20:55.920Z,21.57
2022-12-12T00:23:24.360Z,27.60
2022-12-12T00:25:56.819Z,28.67
2022-12-12T00:28:25.629Z,29.17
2022-12-12T00:30:54.029Z,11.77
2022-12-12T00:33:22.958Z,26.03
2022-12-12T00:35:51.747Z,27.77
2022-12-12T00:38:22.054Z,28.20
2022-12-12T00:40:50.670Z,19.90
2022-12-12T00:43:18.971Z,26.97
2022-12-12T00:45:47.290Z,31.70
2022-12-12T00:48:15.636Z,28.40
2022-12-12T00:50:44.000Z,29.83
2022-12-12T00:53:13.261Z,31.03
2022-12-12T00:55:42.962Z,24.13
2022-12-12T00:58:11.328Z,31.57
2022-12-12T01:00:41.715Z,31.87
2022-12-12T01:03:10.145Z,27.87
2022-12-12T01:05:38.602Z,26.87
2022-12-12T01:08:07.048Z,30.43
2022-12-12T01:10:35.519Z,24.97
2022-12-12T01:13:05.432Z,20.97
2022-12-12T01:15:34.040Z,28.87
2022-12-12T01:18:02.402Z,29.00
2022-12-12T01:20:30.794Z,30.83
2022-12-12T01:22:59.141Z,32.50
2022-12-12T01:25:27.402Z,33.97
2022-12-12T01:27:55.844Z,30.13
2022-12-12T01:30:25.723Z,29.93
2022-12-12T01:32:55.062Z,20.57
2022-12-12T01:35:24.102Z,34.80
2022-12-12T01:37:52.482Z,24.73
2022-12-12T01:40:22.771Z,21.67
2022-12-12T01:42:51.293Z,13.77
2022-12-12T01:45:38.081Z,26.13
2022-12-12T01:48:07.852Z,18.57
2022-12-12T01:50:36.171Z,27.20
2022-12-12T01:53:04.570Z,23.60
2022-12-12T01:55:32.963Z,15.33
2022-12-12T01:58:01.398Z,21.43
2022-12-12T02:00:29.761Z,20.30
2022-12-12T02:02:58.419Z,20.17
2022-12-12T02:05:29.945Z,18.13
2022-12-12T02:07:59.065Z,20.67
2022-12-12T02:10:27.544Z,29.90
2022-12-12T02:12:59.598Z,28.60
2022-12-12T02:15:29.648Z,30.50
2022-12-12T02:18:05.315Z,16.40
2022-12-12T02:20:42.332Z,28.43
2022-12-12T02:23:28.631Z,29.07
2022-12-12T02:26:21.140Z,16.93
2022-12-12T02:29:08.147Z,3.53
2022-12-12T02:31:42.486Z,2.57
2022-12-12T02:34:15.298Z,13.17
2022-12-12T02:36:47.682Z,24.90
2022-12-12T02:39:20.219Z,28.93
2022-12-12T02:41:52.955Z,11.17
2022-12-12T02:44:24.220Z,18.60
2022-12-12T02:46:58.132Z,12.87
2022-12-12T02:49:29.066Z,2.03
2022-12-12T02:51:58.587Z,6.13
2022-12-12T02:54:27.081Z,1.87
2022-12-12T02:56:56.500Z,5.47
2022-12-12T02:59:26.883Z,3.23
2022-12-12T03:02:14.119Z,2.93
2022-12-12T03:05:09.497Z,26.47
2022-12-12T03:07:49.388Z,29.43
2022-12-12T03:10:22.535Z,23.47
2022-12-12T03:12:52.626Z,16.40
2022-12-12T03:15:24.065Z,25.60
2022-12-12T03:17:56.557Z,26.07
2022-12-12T03:20:27.579Z,24.67
2022-12-12T03:22:58.049Z,22.43
2022-12-12T03:25:28.502Z,27.47
2022-12-12T03:28:00.509Z,24.90
2022-12-12T03:30:30.196Z,29.70
2022-12-12T03:33:01.386Z,26.43
2022-12-12T03:35:35.192Z,6.73
2022-12-12T03:38:06.357Z,8.10
2022-12-12T03:40:39.513Z,6.30
2022-12-12T03:43:10.207Z,30.50
2022-12-12T03:45:40.991Z,29.67
2022-12-12T03:48:12.965Z,28.03
2022-12-12T03:50:46.583Z,23.37
2022-12-12T03:53:19.283Z,28.47
2022-12-12T03:55:49.400Z,28.63
2022-12-12T03:58:20.508Z,29.50
2022-12-12T04:00:50.417Z,25.27
2022-12-12T04:03:21.628Z,20.10
2022-12-12T04:06:11.979Z,23.53
2022-12-12T04:09:00.919Z,38.47
2022-12-12T04:11:48.861Z,37.17
2022-12-12T04:14:20.966Z,7.07
2022-12-12T04:16:52.352Z,7.80
2022-12-12T04:19:45.111Z,24.07
2022-12-12T04:22:37.020Z,33.30
2022-12-12T04:25:06.852Z,32.60
2022-12-12T04:27:37.474Z,22.07
2022-12-12T04:30:07.502Z,30.20
2022-12-12T04:32:37.898Z,31.10
2022-12-12T04:35:08.045Z,40.57
2022-12-12T04:37:39.790Z,37.67
2022-12-12T04:40:09.536Z,35.73
2022-12-12T04:42:39.441Z,24.30
2022-12-12T04:45:10.401Z,35.60
2022-12-12T04:47:40.248Z,26.13
2022-12-12T04:50:10.375Z,38.37
2022-12-12T04:52:41.204Z,43.00
2022-12-12T04:55:11.872Z,27.00
2022-12-12T04:57:43.199Z,48.07
2022-12-12T05:00:13.175Z,25.20
2022-12-12T05:02:43.424Z,17.67
2022-12-12T05:05:15.099Z,36.37
2022-12-12T05:07:46.368Z,42.20
2022-12-12T05:10:15.628Z,31.00
2022-12-12T05:12:44.904Z,16.47
2022-12-12T05:15:13.532Z,22.33
2022-12-12T05:17:44.080Z,35.63
2022-12-12T05:20:12.464Z,30.93
2022-12-12T05:22:40.837Z,37.77
2022-12-12T05:25:11.362Z,44.10
2022-12-12T05:27:40.141Z,23.83
2022-12-12T05:30:09.438Z,42.43
2022-12-12T05:32:37.787Z,12.23
2022-12-12T05:35:06.662Z,42.67
2022-12-12T05:37:35.126Z,44.87
2022-12-12T05:40:03.532Z,40.10
2022-12-12T05:42:33.327Z,42.40
2022-12-12T05:45:02.089Z,47.73
2022-12-12T05:47:30.422Z,42.40
2022-12-12T05:49:58.761Z,44.07
2022-12-12T05:52:27.448Z,31.60
2022-12-12T05:54:56.015Z,43.60
2022-12-12T05:57:24.774Z,48.90
2022-12-12T05:59:54.959Z,42.43
2022-12-12T06:02:26.981Z,50.33
2022-12-12T06:04:58.566Z,48.50
2022-12-12T06:07:27.321Z,39.07
2022-12-12T06:09:58.891Z,47.53
2022-12-12T06:12:27.582Z,44.57
2022-12-12T06:14:57.623Z,51.53
2022-12-12T06:17:31.322Z,50.67
2022-12-12T06:20:01.723Z,50.80
2022-12-12T06:22:30.142Z,49.30
2022-12-12T06:24:58.651Z,52.53
2022-12-12T06:27:27.429Z,42.10
2022-12-12T06:29:57.233Z,33.63
2022-12-12T06:32:25.715Z,36.67
2022-12-12T06:34:54.140Z,50.07
2022-12-12T06:37:22.651Z,43.33
2022-12-12T06:39:51.113Z,54.40
2022-12-12T06:42:19.482Z,57.23
2022-12-12T06:44:48.378Z,52.73
2022-12-12T06:47:18.146Z,56.27
2022-12-12T06:49:46.494Z,59.07
2022-12-12T06:52:14.859Z,66.00
2022-12-12T06:54:43.317Z,53.37
2022-12-12T06:57:11.650Z,58.37
2022-12-12T06:59:40.012Z,50.17
2022-12-12T07:02:08.367Z,29.50
2022-12-12T07:04:38.096Z,50.10
2022-12-12T07:07:06.418Z,59.13
2022-12-12T07:09:35.019Z,37.00
2022-12-12T07:12:03.346Z,50.67
2022-12-12T07:14:31.657Z,58.10
2022-12-12T07:17:00.383Z,43.67
2022-12-12T07:19:28.792Z,56.90
2022-12-12T07:21:59.864Z,61.27
2022-12-12T07:24:29.986Z,63.27
2022-12-12T07:26:58.359Z,51.70
2022-12-12T07:29:26.758Z,59.90
2022-12-12T07:31:55.133Z,57.03
2022-12-12T07:34:23.540Z,23.47
2022-12-12T07:36:51.922Z,56.53
2022-12-12T07:39:21.640Z,61.20
2022-12-12T07:41:49.998Z,59.60
2022-12-12T07:44:18.373Z,49.10
2022-12-12T07:46:46.738Z,44.00
2022-12-12T07:49:15.149Z,39.73
2022-12-12T07:51:48.764Z,49.43
2022-12-12T07:54:17.715Z,50.10
2022-12-12T07:56:47.421Z,47.27
2022-12-12T07:59:16.193Z,58.80
2022-12-12T08:01:44.714Z,48.33
2022-12-12T08:04:13.221Z,54.20
2022-12-12T08:06:41.736Z,51.40
2022-12-12T08:09:10.303Z,54.37
2022-12-12T08:11:46.083Z,52.50
2022-12-12T08:14:16.410Z,54.97
2022-12-12T08:16:44.888Z,47.50
2022-12-12T08:19:15.771Z,50.40
2022-12-12T08:21:44.693Z,52.63
2022-12-12T08:24:13.708Z,46.47
2022-12-12T08:26:42.439Z,53.27
2022-12-12T08:29:11.832Z,59.77
2022-12-12T08:31:41.885Z,54.40
2022-12-12T08:34:10.521Z,60.17
2022-12-12T08:36:39.587Z,58.03
2022-12-12T08:39:09.460Z,48.50
2022-12-12T08:41:39.628Z,44.03
2022-12-12T08:44:08.458Z,61.17
2022-12-12T08:46:37.086Z,53.23
2022-12-12T08:49:07.859Z,51.40
2022-12-12T08:51:36.369Z,54.33
2022-12-12T08:54:04.897Z,55.47
2022-12-12T08:56:36.734Z,45.70
2022-12-12T08:59:05.809Z,45.67
2022-12-12T09:01:34.555Z,49.00
2022-12-12T09:04:03.021Z,53.03
2022-12-12T09:06:32.903Z,41.47
2022-12-12T09:09:01.662Z,51.70
2022-12-12T09:11:30.708Z,51.70
2022-12-12T09:13:59.387Z,48.07
2022-12-12T09:16:30.034Z,42.67
2022-12-12T09:18:58.740Z,44.60
2022-12-12T09:21:27.305Z,44.07
2022-12-12T09:23:57.300Z,12.30
2022-12-12T09:26:25.815Z,17.33
2022-12-12T09:28:54.271Z,38.13
2022-12-12T09:31:22.875Z,35.67
2022-12-12T09:33:51.745Z,27.53
2022-12-12T09:36:21.080Z,15.53
2022-12-12T09:38:49.875Z,34.70
2022-12-12T09:41:20.880Z,14.60
2022-12-12T09:43:56.436Z,36.80
2022-12-12T09:46:37.633Z,32.30
2022-12-12T09:49:13.973Z,38.50
2022-12-12T09:51:43.607Z,34.57
2022-12-12T09:54:15.052Z,26.43
2022-12-12T09:56:49.777Z,33.77
2022-12-12T09:59:21.761Z,33.90
2022-12-12T10:01:54.841Z,27.30
2022-12-12T10:04:30.464Z,35.73
2022-12-12T10:07:04.096Z,14.40
2022-12-12T10:09:58.791Z,18.03
2022-12-12T10:12:35.326Z,19.90
2022-12-12T10:15:05.145Z,5.33
2022-12-12T10:17:36.628Z,22.90
2022-12-12T10:20:07.171Z,13.33
2022-12-12T10:22:41.428Z,12.23
2022-12-12T10:25:19.534Z,14.27
2022-12-12T10:27:52.952Z,19.77
2022-12-12T10:30:22.155Z,38.03
2022-12-12T10:33:08.570Z,34.10
2022-12-12T10:35:43.719Z,21.50
2022-12-12T10:38:20.348Z,29.63
2022-12-12T10:40:55.488Z,34.63
2022-12-12T10:43:28.182Z,38.03
2022-12-12T10:46:10.170Z,30.63
2022-12-12T10:48:38.875Z,30.90
2022-12-12T10:51:09.125Z,17.83
2022-12-12T10:53:38.047Z,20.20
2022-12-12T10:56:08.892Z,29.80
2022-12-12T10:58:40.177Z,31.50
2022-12-12T11:01:13.547Z,27.40
2022-12-12T11:03:47.902Z,26.07
2022-12-12T11:06:20.474Z,4.13
2022-12-12T11:09:07.924Z,8.40
2022-12-12T11:11:41.800Z,3.97
2022-12-12T11:14:23.764Z,10.70
2022-12-12T11:16:52.757Z,17.50
2022-12-12T11:19:23.227Z,28.37
2022-12-12T11:21:52.064Z,14.20
2022-12-12T11:24:22.284Z,7.30
2022-12-12T11:27:06.821Z,4.77
2022-12-12T11:29:48.992Z,9.03
2022-12-12T11:32:18.501Z,25.13
2022-12-12T11:34:52.392Z,25.87
2022-12-12T11:40:36.975Z,28.40
2022-12-12T11:43:27.556Z,23.30
2022-12-12T11:46:04.629Z,24.67
2022-12-12T11:49:21.839Z,19.93
2022-12-12T11:52:07.833Z,23.53
2022-12-12T11:55:18.343Z,23.50
2022-12-12T11:58:15.331Z,27.53
2022-12-12T12:00:55.439Z,18.20
2022-12-12T12:03:43.187Z,26.17
2022-12-12T12:06:24.755Z,22.67
2022-12-12T12:09:13.927Z,22.10
2022-12-12T12:11:47.332Z,17.23
2022-12-12T12:14:24.765Z,6.27
2022-12-12T12:16:58.820Z,24.23
2022-12-12T12:19:33.741Z,22.17
2022-12-12T12:22:06.594Z,20.63
2022-12-12T12:24:56.427Z,25.63
2022-12-12T12:27:28.302Z,16.87
2022-12-12T12:30:17.415Z,25.40
2022-12-12T12:32:59.418Z,28.00
2022-12-12T12:36:41.405Z,10.13
2022-12-12T12:42:38.611Z,16.30
2022-12-12T12:45:19.102Z,20.90
2022-12-12T12:47:49.363Z,24.00
2022-12-12T12:50:19.456Z,23.70
2022-12-12T12:52:52.019Z,26.07
2022-12-12T12:55:25.549Z,15.87
2022-12-12T12:57:54.358Z,20.27
2022-12-12T13:00:24.357Z,20.10
2022-12-12T13:06:17.398Z,25.83
2022-12-12T13:21:54.891Z,25.33
2022-12-12T13:24:59.596Z,17.17
2022-12-12T13:28:14.153Z,28.00
2022-12-12T13:31:30.554Z,0.97
2022-12-12T13:41:06.434Z,13.47
2022-12-12T13:46:44.779Z,1.53
2022-12-12T13:49:20.337Z,14.10
2022-12-12T13:52:25.295Z,15.40
2022-12-12T13:55:30.085Z,18.23
2022-12-12T13:58:32.834Z,14.87
2022-12-12T14:01:33.478Z,7.30
2022-12-12T14:04:53.574Z,15.73
2022-12-12T14:07:25.596Z,12.60
2022-12-12T14:09:55.430Z,18.83
2022-12-12T14:12:31.172Z,2.90
2022-12-12T14:15:02.536Z,15.60
2022-12-12T14:17:40.126Z,21.03
2022-12-12T14:20:25.012Z,23.80
2022-12-12T14:23:12.958Z,25.07
2022-12-12T14:25:42.494Z,18.13
2022-12-12T14:28:18.624Z,11.20
2022-12-12T14:30:49.082Z,15.17
2022-12-12T14:33:38.595Z,18.90
2022-12-12T14:36:10.034Z,20.27
2022-12-12T14:38:44.471Z,11.97
2022-12-12T14:41:16.828Z,16.83
2022-12-12T14:43:48.627Z,17.37
2022-12-12T14:46:42.315Z,7.60
2022-12-12T14:49:15.055Z,13.47
2022-12-12T14:51:45.096Z,22.70
2022-12-12T14:54:17.532Z,22.87
2022-12-12T14:56:52.420Z,14.63
2022-12-12T14:59:23.412Z,20.80
2022-12-12T15:01:53.153Z,11.83
2022-12-12T15:04:22.872Z,15.40
2022-12-12T15:06:52.540Z,24.63
2022-12-12T15:09:25.837Z,25.97
2022-12-12T15:12:01.335Z,21.93
2022-12-12T15:14:54.343Z,14.37
2022-12-12T15:17:35.437Z,14.30
2022-12-12T15:20:26.951Z,21.67
2022-12-12T15:23:29.542Z,18.83
2022-12-12T15:50:02.991Z,26.30
2022-12-12T16:01:02.939Z,23.47
2022-12-12T16:08:31.800Z,5.87
2022-12-12T16:11:52.423Z,12.10
2022-12-12T16:19:01.179Z,20.33
2022-12-12T16:22:15.576Z,21.70
2022-12-12T16:28:58.323Z,19.67
2022-12-12T16:32:04.089Z,28.53
2022-12-12T16:38:31.128Z,3.80
2022-12-12T16:44:36.279Z,21.30
2022-12-12T16:50:41.474Z,27.47
2022-12-12T16:53:41.360Z,28.57
2022-12-12T16:56:26.291Z,34.10
2022-12-12T17:03:01.982Z,15.03
2022-12-12T17:06:21.303Z,27.33
2022-12-12T17:09:48.810Z,35.17
2022-12-12T17:13:07.904Z,26.93
2022-12-12T17:16:13.323Z,31.13
2022-12-12T17:26:02.454Z,20.60
2022-12-12T17:29:08.142Z,31.43
2022-12-12T17:36:10.165Z,7.00
2022-12-12T17:39:28.582Z,1.37
2022-12-12T17:45:34.956Z,1.07
2022-12-12T17:48:04.691Z,1.37
2022-12-12T17:50:37.141Z,1.33
2022-12-12T17:53:09.770Z,17.07
2022-12-12T17:55:54.170Z,36.30
2022-12-12T17:58:29.597Z,35.90
2022-12-12T18:00:58.392Z,27.10
2022-12-12T18:03:30.573Z,28.20
2022-12-12T18:06:01.800Z,29.23
2022-12-12T18:08:30.347Z,27.53
2022-12-12T18:11:00.430Z,38.50
2022-12-12T18:13:28.838Z,33.23
2022-12-12T18:15:57.303Z,36.37
2022-12-12T18:18:25.935Z,33.13
2022-12-12T18:20:54.546Z,23.67
2022-12-12T18:23:23.048Z,28.60
2022-12-12T18:25:51.463Z,24.77
2022-12-12T18:28:31.442Z,30.43
2022-12-12T18:30:59.950Z,25.13
2022-12-12T18:33:29.458Z,28.67
2022-12-12T18:36:02.291Z,28.57
2022-12-12T18:38:31.029Z,22.50
2022-12-12T18:40:59.400Z,35.00
2022-12-12T18:43:29.674Z,24.90
2022-12-12T18:46:02.556Z,34.33
2022-12-12T18:48:33.448Z,35.63
2022-12-12T18:51:06.028Z,33.90
2022-12-12T18:53:34.991Z,30.47
2022-12-12T18:56:06.896Z,31.90
2022-12-12T18:58:37.643Z,32.67
2022-12-12T19:01:06.334Z,31.20
2022-12-12T19:03:35.501Z,30.30
2022-12-12T19:06:05.995Z,21.57
2022-12-12T19:08:34.555Z,30.57
2022-12-12T19:11:05.343Z,15.13
2022-12-12T19:13:33.769Z,21.17
2022-12-12T19:16:06.371Z,35.67
2022-12-12T19:18:35.102Z,31.57
2022-12-12T19:21:05.485Z,26.07
2022-12-12T19:23:33.957Z,22.10
2022-12-12T19:26:05.493Z,22.23
2022-12-12T19:28:33.959Z,23.60
2022-12-12T19:31:03.015Z,33.07
2022-12-12T19:33:32.737Z,29.83
2022-12-12T19:36:01.175Z,33.43
2022-12-12T19:38:29.536Z,29.37
2022-12-12T19:40:57.941Z,27.17
2022-12-12T19:43:26.344Z,16.93
2022-12-12T19:46:02.921Z,16.77
2022-12-12T19:48:32.714Z,23.70
2022-12-12T19:51:05.473Z,25.33
2022-12-12T19:53:33.966Z,25.03
2022-12-12T19:56:02.357Z,23.17
2022-12-12T19:58:35.125Z,34.30
2022-12-12T20:01:07.453Z,24.77
2022-12-12T20:03:37.353Z,27.60
2022-12-12T20:06:06.496Z,31.73
2022-12-12T20:08:35.675Z,32.07
2022-12-12T20:11:04.874Z,35.00
2022-12-12T20:13:33.304Z,29.97
2022-12-12T20:16:05.533Z,32.00
2022-12-12T20:18:34.019Z,19.37
2022-12-12T20:21:03.867Z,15.60
2022-12-12T20:23:32.585Z,6.93
2022-12-12T20:26:03.494Z,1.33
2022-12-12T20:28:31.935Z,2.80
2022-12-12T20:31:07.437Z,4.00
2022-12-12T20:33:36.048Z,1.70
2022-12-12T20:36:06.718Z,1.43
2022-12-12T20:38:35.478Z,5.50
2022-12-12T20:41:03.858Z,0.90
2022-12-12T20:43:32.240Z,4.60
2022-12-12T20:46:00.731Z,21.43
2022-12-12T20:48:29.083Z,22.90
2022-12-12T20:50:59.582Z,24.60
2022-12-12T20:53:34.858Z,26.13
2022-12-12T20:56:10.674Z,32.87
2022-12-12T20:58:39.961Z,31.47
2022-12-12T21:01:11.739Z,27.43
2022-12-12T21:03:40.379Z,21.87
2022-12-12T21:06:19.234Z,30.83
2022-12-12T21:08:49.354Z,20.37
2022-12-12T21:11:18.948Z,18.23
2022-12-12T21:13:49.103Z,29.07
2022-12-12T21:16:19.492Z,23.67
2022-12-12T21:18:48.705Z,17.10
2022-12-12T21:21:17.270Z,5.27
2022-12-12T21:23:45.697Z,1.00
2022-12-12T21:26:19.688Z,3.37
2022-12-12T21:28:50.330Z,21.33
2022-12-12T21:31:19.921Z,4.33
2022-12-12T21:33:48.755Z,4.00
2022-12-12T21:36:17.590Z,1.07
2022-12-12T21:38:46.057Z,1.80
2022-12-12T21:41:16.368Z,2.43
2022-12-12T21:43:46.155Z,1.13
2022-12-12T21:46:15.389Z,1.83
2022-12-12T21:48:43.876Z,0.90
2022-12-12T21:51:14.873Z,3.47
2022-12-12T21:53:43.489Z,7.00
2022-12-12T21:56:12.585Z,3.63
2022-12-12T21:58:43.027Z,3.20
2022-12-12T22:01:12.360Z,1.40
2022-12-12T22:03:40.954Z,2.87
2022-12-12T22:06:12.747Z,3.30
2022-12-12T22:08:41.242Z,5.00
2022-12-12T22:11:10.403Z,2.23
2022-12-12T22:13:40.292Z,18.53
2022-12-12T22:16:12.876Z,7.87
2022-12-12T22:18:41.330Z,22.07
2022-12-12T22:21:10.473Z,16.63
2022-12-12T22:23:39.745Z,8.80
2022-12-12T22:26:14.391Z,29.23
2022-12-12T22:28:43.910Z,24.87
2022-12-12T22:31:13.772Z,25.70
2022-12-12T22:33:42.124Z,33.17
2022-12-12T22:36:11.333Z,31.47
2022-12-12T22:38:39.943Z,26.07
2022-12-12T22:41:09.066Z,20.00
2022-12-12T22:43:37.438Z,9.30
2022-12-12T22:46:06.576Z,7.63
2022-12-12T22:48:36.898Z,31.53
2022-12-12T22:51:13.106Z,32.17
2022-12-12T22:53:44.415Z,17.27
2022-12-12T22:56:13.288Z,19.43
2022-12-12T22:58:42.074Z,5.57
2022-12-12T23:01:11.198Z,3.30
2022-12-12T23:03:41.116Z,6.87
2022-12-12T23:06:11.224Z,15.30
2022-12-12T23:08:39.601Z,32.60
2022-12-12T23:11:08.788Z,25.47
2022-12-12T23:13:37.612Z,36.03
2022-12-12T23:16:06.483Z,28.83
2022-12-12T23:18:35.036Z,36.60
2022-12-12T23:21:04.980Z,33.40
2022-12-12T23:23:34.324Z,33.17
2022-12-12T23:26:03.765Z,30.30
2022-12-12T23:28:32.313Z,28.70
2022-12-12T23:31:00.710Z,27.30
2022-12-12T23:33:29.192Z,29.07
2022-12-12T23:35:57.615Z,34.27
2022-12-12T23:38:27.365Z,28.57
2022-12-12T23:40:55.745Z,24.73
2022-12-12T23:43:24.183Z,32.40
2022-12-12T23:45:52.631Z,26.43
2022-12-12T23:48:20.987Z,30.97
2022-12-12T23:50:49.618Z,33.83
2022-12-12T23:53:18.053Z,24.63
2022-12-12T23:55:48.181Z,25.30
2022-12-12T23:58:16.741Z,31.47
